Time;durP1;ratioP1;P1;durP2;ratioP2;P2;SDS_P1;SDS_P2;PMS_P1;PMS_P2;Temp;Humidity;BMP_temperature;BMP_pressure;BME280_temperature;BME280_humidity;BME280_pressure;Samples;Min_cycle;Max_cycle;Signal;HPM_P1;HPM_P2
2022/10/10 00:02:12;;;;;;;18.53;9.90;;;13.40;99.90;;;;;;5116618;28;20220;-71
2022/10/10 00:04:38;;;;;;;20.40;9.93;;;13.40;99.90;;;;;;5116520;28;20214;-71
2022/10/10 00:07:04;;;;;;;14.40;9.00;;;13.40;99.90;;;;;;5116438;28;20219;-71
2022/10/10 00:09:29;;;;;;;13.60;9.13;;;13.30;99.90;;;;;;5116369;28;20195;-71
2022/10/10 00:11:55;;;;;;;16.50;9.30;;;13.30;99.90;;;;;;5116362;28;20183;-71
2022/10/10 00:14:21;;;;;;;11.33;8.13;;;13.30;99.90;;;;;;5115021;28;20180;-71
2022/10/10 00:16:46;;;;;;;12.20;8.43;;;13.30;99.90;;;;;;5114915;28;20375;-71
2022/10/10 00:19:12;;;;;;;11.93;9.00;;;13.20;99.90;;;;;;5116122;28;20559;-71
2022/10/10 00:21:38;;;;;;;17.33;9.50;;;13.20;99.90;;;;;;5116224;28;20685;-71
2022/10/10 00:24:04;;;;;;;11.07;8.10;;;13.20;99.90;;;;;;5131582;27;20745;-71
2022/10/10 00:26:29;;;;;;;12.70;7.60;;;13.20;99.90;;;;;;5118139;27;20286;-71
2022/10/10 00:28:55;;;;;;;12.13;8.40;;;13.20;99.90;;;;;;5136989;27;20214;-71
2022/10/10 00:31:21;;;;;;;11.77;8.17;;;13.20;99.90;;;;;;5118488;27;20195;-71
2022/10/10 00:33:47;;;;;;;13.43;8.90;;;13.20;99.90;;;;;;5137059;27;20902;-71
2022/10/10 00:36:13;;;;;;;14.80;9.13;;;13.20;99.90;;;;;;5136370;27;20195;-71
2022/10/10 00:38:38;;;;;;;16.87;9.70;;;13.20;99.90;;;;;;5117897;27;20920;-71
2022/10/10 00:41:04;;;;;;;21.77;13.03;;;13.20;99.90;;;;;;5136333;27;20422;-71
2022/10/10 00:43:34;;;;;;;25.50;14.87;;;13.20;99.90;;;;;;5136767;27;20178;-71
2022/10/10 00:45:59;;;;;;;22.17;13.10;;;13.10;99.90;;;;;;5117805;27;20511;-71
2022/10/10 00:48:30;;;;;;;25.27;12.73;;;13.10;99.90;;;;;;5136529;27;20503;-71
2022/10/10 00:50:57;;;;;;;20.50;10.90;;;13.10;99.90;;;;;;5136237;27;20183;-71
2022/10/10 00:53:27;;;;;;;15.97;10.20;;;13.00;99.90;;;;;;5117696;27;20427;-71
2022/10/10 00:55:53;;;;;;;14.70;9.80;;;13.00;99.90;;;;;;5135921;27;20442;-71
2022/10/10 00:58:20;;;;;;;15.20;9.70;;;13.00;99.90;;;;;;5136264;27;20423;-71
2022/10/10 01:00:46;;;;;;;23.73;12.67;;;12.90;99.90;;;;;;5117468;27;20851;-73
2022/10/10 01:03:12;;;;;;;18.87;12.10;;;12.90;99.90;;;;;;5116847;27;20451;-71
2022/10/10 01:05:38;;;;;;;17.30;11.60;;;12.90;99.90;;;;;;5135861;27;20430;-71
2022/10/10 01:08:05;;;;;;;13.63;8.67;;;12.90;99.90;;;;;;5135648;27;20218;-71
2022/10/10 01:10:54;;;;;;;10.70;7.10;;;12.90;99.90;;;;;;5135799;27;20407;-71
2022/10/10 01:13:29;;;;;;;8.23;5.77;;;12.80;99.90;;;;;;5136185;27;20419;-72
2022/10/10 01:16:24;;;;;;;8.80;6.00;;;12.80;99.90;;;;;;5135533;27;20487;-71
2022/10/10 01:19:18;;;;;;;9.20;7.00;;;12.80;99.90;;;;;;5136047;27;20419;-71
2022/10/10 01:22:05;;;;;;;13.60;8.73;;;12.70;99.90;;;;;;5135742;27;20436;-71
2022/10/10 01:24:36;;;;;;;11.70;7.40;;;12.70;99.90;;;;;;5135645;27;20471;-71
2022/10/10 01:27:07;;;;;;;8.97;7.20;;;12.60;99.90;;;;;;5135332;27;20439;-71
2022/10/10 01:29:51;;;;;;;14.17;8.90;;;12.60;99.90;;;;;;5116994;27;20800;-71
2022/10/10 01:32:23;;;;;;;17.43;10.87;;;12.60;99.90;;;;;;5116951;27;20958;-71
2022/10/10 01:35:04;;;;;;;19.00;10.98;;;12.60;99.90;;;;;;5116886;27;20535;-71
2022/10/10 01:37:44;;;;;;;14.73;9.70;;;12.50;99.90;;;;;;5135540;27;20224;-71
2022/10/10 01:40:22;;;;;;;10.57;7.33;;;12.50;99.90;;;;;;5135138;27;20431;-71
2022/10/10 01:42:54;;;;;;;8.67;7.63;;;12.50;99.90;;;;;;5135446;27;20426;-71
2022/10/10 01:45:20;;;;;;;8.63;7.30;;;12.50;99.90;;;;;;5135240;27;20771;-71
2022/10/10 01:47:48;;;;;;;17.40;10.43;;;12.40;99.90;;;;;;5135244;27;20563;-71
2022/10/10 01:50:18;;;;;;;15.48;9.50;;;12.40;99.90;;;;;;5116588;27;20302;-71
2022/10/10 01:53:02;;;;;;;16.37;9.90;;;12.40;99.90;;;;;;5135299;27;20168;-71
2022/10/10 01:55:41;;;;;;;20.90;11.50;;;12.40;99.90;;;;;;5134968;27;20427;-72
2022/10/10 01:58:21;;;;;;;22.00;15.15;;;12.30;99.90;;;;;;5116539;27;20183;-72
2022/10/10 02:00:57;;;;;;;24.77;18.57;;;12.30;99.90;;;;;;5134876;27;20199;-72
2022/10/10 02:03:30;;;;;;;23.67;16.37;;;12.30;99.90;;;;;;5116738;27;20916;-71
2022/10/10 02:06:02;;;;;;;18.23;12.17;;;12.30;99.90;;;;;;5134876;27;20476;-71
2022/10/10 02:08:35;;;;;;;10.50;8.23;;;12.30;99.90;;;;;;5116473;27;21046;-71
2022/10/10 02:11:07;;;;;;;11.02;7.55;;;12.20;99.90;;;;;;5116686;28;20191;-71
2022/10/10 02:13:52;;;;;;;14.70;9.83;;;12.20;99.90;;;;;;5116464;28;20183;-71
2022/10/10 02:16:23;;;;;;;14.67;9.67;;;12.20;99.90;;;;;;5116154;27;20443;-71
2022/10/10 02:18:50;;;;;;;17.80;11.10;;;12.20;99.90;;;;;;5135225;27;20423;-71
2022/10/10 02:21:16;;;;;;;21.10;10.70;;;12.20;99.90;;;;;;5134573;28;20427;-71
2022/10/10 02:23:46;;;;;;;16.17;9.43;;;12.20;99.90;;;;;;5134728;28;21018;-71
2022/10/10 02:26:16;;;;;;;8.33;6.90;;;12.10;99.90;;;;;;5134563;28;20203;-71
2022/10/10 02:29:03;;;;;;;9.25;6.45;;;12.10;99.90;;;;;;5135043;28;20467;-71
2022/10/10 02:31:37;;;;;;;12.02;6.65;;;12.10;99.90;;;;;;5134641;28;20202;-72
2022/10/10 02:34:21;;;;;;;7.20;4.90;;;12.10;99.90;;;;;;5134564;28;20538;-71
2022/10/10 02:36:52;;;;;;;9.23;5.90;;;12.00;99.90;;;;;;5134495;28;20174;-71
2022/10/10 02:39:21;;;;;;;9.05;6.22;;;12.00;99.90;;;;;;5116083;28;20216;-71
2022/10/10 02:41:50;;;;;;;8.15;6.20;;;11.90;99.90;;;;;;5134475;28;20182;-71
2022/10/10 02:44:16;;;;;;;14.40;8.52;;;11.90;99.90;;;;;;5134457;28;20172;-71
2022/10/10 02:46:42;;;;;;;10.25;5.60;;;11.90;99.90;;;;;;5116081;28;20571;-71
2022/10/10 02:49:09;;;;;;;8.07;5.37;;;11.90;99.90;;;;;;5116166;28;20210;-71
2022/10/10 02:51:35;;;;;;;10.82;4.97;;;11.90;99.90;;;;;;5134497;28;20639;-71
2022/10/10 02:54:00;;;;;;;8.30;5.17;;;11.80;99.90;;;;;;5134881;28;20244;-71
2022/10/10 02:56:26;;;;;;;6.97;5.10;;;11.80;99.90;;;;;;5134341;28;20183;-71
2022/10/10 02:58:51;;;;;;;8.60;5.40;;;11.80;99.90;;;;;;5134842;28;20183;-71
2022/10/10 03:01:17;;;;;;;5.77;5.13;;;11.70;99.90;;;;;;5134494;28;20198;-71
2022/10/10 03:03:42;;;;;;;7.80;6.37;;;11.70;99.90;;;;;;5134768;28;20211;-71
2022/10/10 03:06:08;;;;;;;9.57;6.53;;;11.70;99.90;;;;;;5134205;28;20237;-71
2022/10/10 03:08:37;;;;;;;7.60;5.13;;;11.70;99.90;;;;;;5134569;28;20234;-71
2022/10/10 03:11:03;;;;;;;10.65;6.97;;;11.70;99.90;;;;;;5134139;28;20618;-71
2022/10/10 03:13:28;;;;;;;12.10;6.50;;;11.70;99.90;;;;;;5134615;28;20172;-71
2022/10/10 03:15:54;;;;;;;13.27;6.47;;;11.60;99.90;;;;;;5134120;28;20199;-71
2022/10/10 03:18:20;;;;;;;9.60;5.70;;;11.60;99.90;;;;;;5134538;28;20654;-71
2022/10/10 03:20:49;;;;;;;7.67;5.30;;;11.60;99.90;;;;;;5134113;28;20626;-71
2022/10/10 03:23:15;;;;;;;6.93;5.10;;;11.60;99.90;;;;;;5133780;28;20434;-72
2022/10/10 03:25:42;;;;;;;6.30;5.07;;;11.50;99.90;;;;;;5135455;27;20262;-70
2022/10/10 03:28:08;;;;;;;8.23;5.45;;;11.50;99.90;;;;;;5119378;27;20222;-71
2022/10/10 03:30:34;;;;;;;6.13;4.88;;;11.50;99.90;;;;;;5137776;27;20218;-71
2022/10/10 03:33:00;;;;;;;6.57;5.30;;;11.50;99.90;;;;;;5137944;27;20199;-71
2022/10/10 03:35:26;;;;;;;6.00;5.40;;;11.40;99.90;;;;;;5119185;27;20552;-71
2022/10/10 03:37:51;;;;;;;14.47;6.20;;;11.40;99.90;;;;;;5137833;27;20319;-71
2022/10/10 03:40:17;;;;;;;7.27;5.07;;;11.40;99.90;;;;;;5137474;27;20218;-70
2022/10/10 03:42:42;;;;;;;10.40;6.20;;;11.40;99.90;;;;;;5137801;27;20171;-71
2022/10/10 03:45:08;;;;;;;12.20;8.07;;;11.50;99.90;;;;;;5118922;27;20223;-71
2022/10/10 03:47:34;;;;;;;16.30;8.90;;;11.50;99.90;;;;;;5137523;27;20301;-71
2022/10/10 03:49:59;;;;;;;14.57;9.93;;;11.50;99.90;;;;;;5118874;27;20423;-71
2022/10/10 03:52:25;;;;;;;14.33;10.17;;;11.60;99.90;;;;;;5137453;27;20258;-71
2022/10/10 03:54:50;;;;;;;16.77;9.40;;;11.60;99.90;;;;;;5137269;27;20199;-71
2022/10/10 03:57:16;;;;;;;21.10;11.17;;;11.70;99.90;;;;;;5137198;27;20612;-71
2022/10/10 03:59:41;;;;;;;18.97;9.93;;;11.70;99.90;;;;;;5137152;27;20215;-71
2022/10/10 04:02:07;;;;;;;11.63;7.30;;;11.70;99.90;;;;;;5137081;27;20182;-71
2022/10/10 04:04:32;;;;;;;17.80;10.67;;;11.70;99.90;;;;;;5137065;27;20679;-71
2022/10/10 04:06:58;;;;;;;15.73;8.43;;;11.80;99.90;;;;;;5118499;27;20270;-70
2022/10/10 04:09:24;;;;;;;12.30;5.80;;;11.80;99.90;;;;;;5118588;27;20239;-71
2022/10/10 04:11:49;;;;;;;13.57;8.10;;;11.80;99.90;;;;;;5118564;27;20174;-71
2022/10/10 04:14:15;;;;;;;10.90;7.10;;;11.80;99.90;;;;;;5118529;27;20178;-71
2022/10/10 04:16:40;;;;;;;11.70;7.37;;;11.90;99.90;;;;;;5118558;27;20183;-71
2022/10/10 04:19:06;;;;;;;11.87;8.70;;;11.90;99.90;;;;;;5137273;27;20246;-71
2022/10/10 04:21:31;;;;;;;12.83;8.50;;;11.90;99.90;;;;;;5136573;27;20198;-71
2022/10/10 04:23:57;;;;;;;9.90;6.87;;;11.90;99.90;;;;;;5136038;27;20609;-72
2022/10/10 04:26:22;;;;;;;13.23;7.83;;;11.90;99.90;;;;;;5136012;27;20226;-71
2022/10/10 04:28:48;;;;;;;9.77;6.47;;;11.90;99.90;;;;;;5118375;27;20215;-71
2022/10/10 04:31:14;;;;;;;7.57;6.23;;;11.90;99.90;;;;;;5135649;27;20198;-71
2022/10/10 04:33:39;;;;;;;7.30;6.23;;;11.90;99.90;;;;;;5136603;27;20592;-71
2022/10/10 04:36:05;;;;;;;7.93;6.27;;;11.90;99.90;;;;;;5133668;27;20230;-71
2022/10/10 04:38:31;;;;;;;8.00;5.30;;;11.90;99.90;;;;;;5136031;27;20202;-72
2022/10/10 04:40:56;;;;;;;7.40;5.23;;;11.90;99.90;;;;;;5132539;27;20747;-70
2022/10/10 04:43:22;;;;;;;7.90;5.73;;;11.90;99.90;;;;;;5128203;27;20231;-71
2022/10/10 04:45:48;;;;;;;8.07;5.20;;;11.90;99.90;;;;;;5132472;27;20222;-71
2022/10/10 04:48:13;;;;;;;9.47;5.27;;;11.90;99.90;;;;;;5135872;27;20211;-71
2022/10/10 04:50:39;;;;;;;7.27;5.47;;;11.90;99.90;;;;;;5135756;27;20215;-72
2022/10/10 04:53:05;;;;;;;9.13;5.30;;;11.90;99.90;;;;;;5118819;27;20278;-73
2022/10/10 04:55:30;;;;;;;9.60;5.80;;;11.90;99.90;;;;;;5116281;27;20187;-73
2022/10/10 04:57:56;;;;;;;5.97;5.13;;;11.90;99.90;;;;;;5117091;27;20183;-72
2022/10/10 05:00:22;;;;;;;5.83;5.17;;;11.90;99.90;;;;;;5134847;27;20240;-71
2022/10/10 05:02:47;;;;;;;7.77;6.60;;;11.90;99.90;;;;;;5135321;27;20609;-72
2022/10/10 05:05:13;;;;;;;9.53;6.70;;;11.90;99.90;;;;;;5134219;27;20618;-73
2022/10/10 05:07:38;;;;;;;5.90;4.67;;;11.90;99.90;;;;;;5135331;27;20706;-72
2022/10/10 05:10:05;;;;;;;5.07;4.40;;;11.90;99.90;;;;;;5134486;27;20206;-73
2022/10/10 05:12:31;;;;;;;5.03;4.47;;;11.90;99.90;;;;;;5135677;27;20197;-72
2022/10/10 05:14:57;;;;;;;6.60;4.80;;;11.90;99.90;;;;;;5133916;27;20281;-73
2022/10/10 05:17:22;;;;;;;5.63;4.60;;;12.00;99.90;;;;;;5123167;27;20943;-73
2022/10/10 05:19:48;;;;;;;6.43;4.97;;;12.00;99.90;;;;;;5126359;27;20747;-73
2022/10/10 05:22:13;;;;;;;10.43;6.20;;;12.00;99.90;;;;;;5135397;27;20654;-73
2022/10/10 05:24:39;;;;;;;7.63;5.40;;;12.10;99.90;;;;;;5126044;27;20234;-74
2022/10/10 05:27:05;;;;;;;5.73;4.60;;;12.10;99.90;;;;;;5115820;27;20194;-73
2022/10/10 05:29:30;;;;;;;8.00;4.83;;;12.10;99.90;;;;;;5109727;28;20199;-73
2022/10/10 05:31:56;;;;;;;4.90;4.50;;;12.10;99.90;;;;;;5125070;27;20474;-73
2022/10/10 05:34:22;;;;;;;7.23;4.73;;;12.20;99.90;;;;;;5132746;27;20248;-74
2022/10/10 05:36:47;;;;;;;6.27;5.33;;;12.20;99.90;;;;;;5112002;27;20182;-73
2022/10/10 05:39:13;;;;;;;7.27;5.40;;;12.10;99.90;;;;;;5131711;27;20185;-73
2022/10/10 05:41:38;;;;;;;5.90;5.00;;;12.10;99.90;;;;;;5114775;27;20224;-73
2022/10/10 05:44:04;;;;;;;5.30;4.80;;;12.10;99.90;;;;;;5132294;27;20258;-73
2022/10/10 05:46:30;;;;;;;5.73;5.20;;;12.10;99.90;;;;;;5131521;27;20195;-72
2022/10/10 05:48:56;;;;;;;7.83;4.93;;;12.10;99.90;;;;;;5111419;27;20569;-73
2022/10/10 05:51:21;;;;;;;7.10;4.95;;;12.20;99.90;;;;;;5109741;27;20434;-74
2022/10/10 05:53:48;;;;;;;6.20;4.40;;;12.20;99.90;;;;;;5127377;27;20179;-72
2022/10/10 05:56:15;;;;;;;6.38;4.43;;;12.20;99.90;;;;;;5125010;27;20782;-74
2022/10/10 05:58:41;;;;;;;5.38;4.07;;;12.30;99.90;;;;;;5105436;27;20250;-74
2022/10/10 06:01:08;;;;;;;5.50;4.13;;;12.30;99.90;;;;;;5125181;27;20247;-73
2022/10/10 06:03:34;;;;;;;7.25;4.60;;;12.40;99.90;;;;;;5124667;27;20254;-73
2022/10/10 06:06:01;;;;;;;5.47;4.13;;;12.40;99.90;;;;;;5127366;27;20191;-73
2022/10/10 06:08:26;;;;;;;6.30;4.13;;;12.40;99.90;;;;;;5104154;27;20463;-75
2022/10/10 06:10:52;;;;;;;6.90;4.30;;;12.50;99.90;;;;;;5123497;27;20534;-75
2022/10/10 06:13:18;;;;;;;6.97;4.77;;;12.50;99.90;;;;;;5128818;27;20190;-73
2022/10/10 06:15:44;;;;;;;5.97;4.63;;;12.60;99.90;;;;;;5132867;27;20187;-74
2022/10/10 06:18:10;;;;;;;4.80;4.30;;;12.60;99.90;;;;;;5113110;27;20706;-75
2022/10/10 06:20:37;;;;;;;12.50;4.87;;;12.70;99.90;;;;;;5109020;28;20547;-75
2022/10/10 06:23:04;;;;;;;6.77;3.97;;;12.70;99.90;;;;;;5125528;28;20580;-75
2022/10/10 06:25:33;;;;;;;9.60;4.43;;;12.80;99.90;;;;;;5128315;28;20478;-74
2022/10/10 06:27:58;;;;;;;6.13;4.30;;;12.80;99.90;;;;;;5127832;28;20501;-75
2022/10/10 06:30:24;;;;;;;34.67;16.23;;;12.80;99.90;;;;;;5122174;27;20692;-72
2022/10/10 06:32:50;;;;;;;7.90;4.93;;;12.90;99.90;;;;;;5119245;28;21167;-73
2022/10/10 06:35:16;;;;;;;6.13;4.30;;;12.90;99.90;;;;;;5129835;28;20203;-73
2022/10/10 06:37:41;;;;;;;6.37;4.50;;;12.90;99.90;;;;;;5130224;28;20935;-73
2022/10/10 06:40:07;;;;;;;5.67;4.00;;;13.00;99.90;;;;;;5111610;28;20652;-74
2022/10/10 06:42:33;;;;;;;7.43;4.00;;;13.00;99.90;;;;;;5131562;28;20183;-74
2022/10/10 06:44:58;;;;;;;5.40;4.00;;;13.10;99.90;;;;;;5131621;28;20300;-75
2022/10/10 06:47:24;;;;;;;4.77;4.37;;;13.20;99.90;;;;;;5105910;28;20562;-74
2022/10/10 06:49:49;;;;;;;4.13;3.73;;;13.20;99.90;;;;;;5118981;27;20626;-74
2022/10/10 06:52:15;;;;;;;4.40;4.00;;;13.30;99.90;;;;;;5106865;28;20643;-73
2022/10/10 06:54:41;;;;;;;6.93;5.27;;;13.30;99.90;;;;;;5122365;28;20191;-74
2022/10/10 06:57:07;;;;;;;7.70;4.03;;;13.30;99.90;;;;;;5118569;27;20432;-74
2022/10/10 06:59:33;;;;;;;4.83;4.43;;;13.30;99.90;;;;;;5107809;28;20247;-75
2022/10/10 07:01:59;;;;;;;11.30;4.50;;;13.30;99.90;;;;;;5130693;27;20202;-73
2022/10/10 07:04:25;;;;;;;6.80;4.70;;;13.40;99.90;;;;;;5113209;27;20470;-73
2022/10/10 07:06:50;;;;;;;6.03;4.50;;;13.40;99.90;;;;;;5131642;27;20440;-74
2022/10/10 07:09:17;;;;;;;5.53;4.20;;;13.50;99.90;;;;;;5133466;27;20458;-73
2022/10/10 07:11:44;;;;;;;5.37;4.80;;;13.50;99.90;;;;;;5127174;27;20179;-73
2022/10/10 07:14:10;;;;;;;5.40;3.90;;;13.60;99.90;;;;;;5125045;27;20867;-72
2022/10/10 07:16:36;;;;;;;6.13;5.10;;;13.60;99.90;;;;;;5107385;27;20407;-73
2022/10/10 07:19:01;;;;;;;11.87;7.80;;;13.70;99.90;;;;;;5125901;27;20450;-74
2022/10/10 07:21:27;;;;;;;9.30;7.07;;;13.70;99.90;;;;;;5127307;27;20194;-74
2022/10/10 07:23:53;;;;;;;5.70;5.10;;;13.80;99.90;;;;;;5134893;27;20239;-73
2022/10/10 07:26:21;;;;;;;8.40;4.80;;;13.90;99.90;;;;;;5130029;27;20727;-74
2022/10/10 07:28:49;;;;;;;9.03;5.80;;;14.00;99.90;;;;;;5130320;27;21577;-75
2022/10/10 07:31:15;;;;;;;5.20;4.50;;;14.00;99.90;;;;;;5126789;27;20503;-74
2022/10/10 07:33:46;;;;;;;12.17;7.20;;;14.20;99.90;;;;;;5126208;27;20767;-73
2022/10/10 07:36:12;;;;;;;7.57;6.50;;;14.20;99.90;;;;;;5130061;27;20198;-73
2022/10/10 07:38:38;;;;;;;9.90;6.70;;;14.30;99.90;;;;;;5130903;27;20973;-74
2022/10/10 07:41:08;;;;;;;5.63;5.00;;;14.40;99.90;;;;;;5131728;27;20515;-74
2022/10/10 07:43:34;;;;;;;7.30;5.07;;;14.60;99.90;;;;;;5111758;27;20438;-73
2022/10/10 07:46:00;;;;;;;6.23;4.70;;;14.70;99.90;;;;;;5111506;27;20439;-73
2022/10/10 07:48:26;;;;;;;5.03;4.50;;;14.90;99.90;;;;;;5132607;27;20463;-74
2022/10/10 07:50:51;;;;;;;5.90;4.70;;;15.20;99.90;;;;;;5134464;27;20207;-73
2022/10/10 07:53:17;;;;;;;6.10;5.50;;;15.60;99.90;;;;;;5113846;27;20203;-74
2022/10/10 07:55:43;;;;;;;7.20;5.93;;;16.00;99.90;;;;;;5107129;27;20200;-73
2022/10/10 07:58:12;;;;;;;5.10;4.60;;;16.50;99.90;;;;;;5129047;27;20427;-74
2022/10/10 08:00:42;;;;;;;4.50;3.77;;;17.10;99.90;;;;;;5133004;27;20205;-74
2022/10/10 08:03:08;;;;;;;6.47;4.67;;;17.80;99.90;;;;;;5117270;27;20990;-73
2022/10/10 08:05:41;;;;;;;6.37;4.33;;;18.60;99.90;;;;;;5134512;27;20474;-73
2022/10/10 08:08:10;;;;;;;10.43;4.53;;;19.30;99.90;;;;;;5115837;27;20462;-73
2022/10/10 08:10:36;;;;;;;184.20;25.80;;;20.10;99.90;;;;;;5113003;27;20435;-74
2022/10/10 08:13:02;;;;;;;85.13;15.63;;;20.90;99.90;;;;;;5130366;27;20427;-75
2022/10/10 08:15:28;;;;;;;11.80;6.70;;;21.50;99.90;;;;;;5094051;28;20532;-74
2022/10/10 08:17:54;;;;;;;23.47;9.47;;;22.10;99.90;;;;;;5123071;27;20517;-75
2022/10/10 08:20:19;;;;;;;25.60;9.43;;;22.60;99.90;;;;;;5128224;27;20200;-75
2022/10/10 08:22:45;;;;;;;9.27;4.47;;;23.10;99.90;;;;;;5127233;27;20295;-73
2022/10/10 08:25:10;;;;;;;10.43;5.37;;;23.60;99.90;;;;;;5126525;27;20252;-74
2022/10/10 08:27:36;;;;;;;8.80;5.10;;;23.90;99.90;;;;;;5127521;27;20695;-74
2022/10/10 08:30:02;;;;;;;4.33;3.93;;;24.10;99.90;;;;;;5113111;27;20277;-74
2022/10/10 08:32:28;;;;;;;5.13;4.23;;;24.20;99.90;;;;;;5112995;27;20631;-74
2022/10/10 08:34:53;;;;;;;9.40;4.83;;;24.20;99.80;;;;;;5106660;27;20682;-73
2022/10/10 08:37:19;;;;;;;5.70;5.17;;;24.10;99.30;;;;;;5119329;27;20199;-74
2022/10/10 08:39:44;;;;;;;5.67;4.90;;;23.90;99.30;;;;;;5127061;27;20199;-74
2022/10/10 08:42:16;;;;;;;7.17;5.57;;;23.70;99.30;;;;;;5125359;27;20206;-73
2022/10/10 08:44:50;;;;;;;5.50;5.00;;;23.50;99.20;;;;;;5109826;27;20191;-74
2022/10/10 08:47:21;;;;;;;6.10;5.50;;;23.20;99.20;;;;;;5128267;27;20435;-74
2022/10/10 08:49:53;;;;;;;6.37;5.77;;;22.80;99.60;;;;;;5130667;27;20415;-74
2022/10/10 08:52:44;;;;;;;9.40;5.60;;;22.40;99.90;;;;;;5130679;27;20446;-74
2022/10/10 08:55:34;;;;;;;7.93;5.80;;;21.90;99.90;;;;;;5128264;27;20435;-75
2022/10/10 08:58:25;;;;;;;6.70;5.70;;;21.50;99.90;;;;;;5098759;27;20427;-74
2022/10/10 09:01:01;;;;;;;6.17;5.50;;;21.20;99.90;;;;;;5097712;27;20463;-73
2022/10/10 09:03:36;;;;;;;7.97;6.17;;;21.00;99.90;;;;;;5110953;27;21196;-73
2022/10/10 09:06:20;;;;;;;6.23;5.63;;;20.80;99.90;;;;;;5110364;27;20430;-73
2022/10/10 09:09:09;;;;;;;6.70;5.60;;;20.60;99.90;;;;;;5128377;27;21059;-74
2022/10/10 09:11:55;;;;;;;7.37;5.20;;;20.30;99.90;;;;;;5109231;27;20621;-74
2022/10/10 09:14:39;;;;;;;6.00;5.50;;;20.20;99.90;;;;;;5107503;27;20435;-73
2022/10/10 09:17:29;;;;;;;6.20;5.60;;;20.00;99.90;;;;;;5108410;27;20433;-73
2022/10/10 09:20:10;;;;;;;9.33;6.20;;;19.70;99.90;;;;;;5109974;27;20449;-74
2022/10/10 09:22:56;;;;;;;6.33;5.73;;;19.50;99.90;;;;;;5110115;27;20691;-74
2022/10/10 09:25:26;;;;;;;8.50;6.70;;;19.30;99.90;;;;;;5111037;27;20519;-73
2022/10/10 09:28:05;;;;;;;7.67;6.60;;;19.20;99.90;;;;;;5127456;27;20477;-73
2022/10/10 09:30:34;;;;;;;9.40;6.00;;;19.00;99.90;;;;;;5116069;27;20542;-74
2022/10/10 09:33:20;;;;;;;8.27;7.47;;;18.90;99.90;;;;;;5124604;27;20418;-73
2022/10/10 09:35:47;;;;;;;7.80;6.33;;;18.70;99.90;;;;;;5121713;27;20491;-73
2022/10/10 09:38:33;;;;;;;11.90;6.27;;;18.60;99.90;;;;;;5119443;27;20438;-74
2022/10/10 09:41:04;;;;;;;13.43;7.40;;;18.60;99.90;;;;;;5125648;27;20468;-73
2022/10/10 09:43:31;;;;;;;9.13;6.10;;;18.50;99.90;;;;;;5131210;27;20404;-73
2022/10/10 09:45:58;;;;;;;9.53;7.53;;;18.40;99.90;;;;;;5112340;27;20519;-73
2022/10/10 09:48:37;;;;;;;8.93;7.80;;;18.40;99.90;;;;;;5128651;27;20521;-73
2022/10/10 09:51:14;;;;;;;9.37;8.37;;;18.40;99.90;;;;;;5118181;27;20573;-73
2022/10/10 09:53:40;;;;;;;9.40;7.87;;;18.40;99.90;;;;;;5132350;27;20440;-73
2022/10/10 09:56:13;;;;;;;12.10;9.03;;;18.40;99.90;;;;;;5130125;27;20893;-73
2022/10/10 09:58:41;;;;;;;9.27;7.70;;;18.50;99.90;;;;;;5112357;27;20446;-73
2022/10/10 10:01:33;;;;;;;8.87;7.63;;;18.60;99.90;;;;;;5130075;27;20823;-73
2022/10/10 10:04:06;;;;;;;9.53;7.27;;;18.60;99.90;;;;;;5129185;27;20952;-72
2022/10/10 10:06:33;;;;;;;9.60;8.00;;;18.60;99.90;;;;;;5112288;27;20451;-72
2022/10/10 10:09:04;;;;;;;10.93;8.00;;;18.60;99.90;;;;;;5111984;27;20932;-74
2022/10/10 10:11:38;;;;;;;10.17;8.73;;;18.60;99.90;;;;;;5125557;27;20444;-72
2022/10/10 10:14:04;;;;;;;9.70;8.70;;;18.60;99.90;;;;;;5130858;27;20455;-73
2022/10/10 10:16:33;;;;;;;10.27;7.60;;;18.60;99.90;;;;;;5129927;27;20429;-73
2022/10/10 10:18:59;;;;;;;9.87;8.40;;;18.60;99.90;;;;;;5127717;27;20842;-72
2022/10/10 10:21:25;;;;;;;10.37;8.83;;;18.50;99.90;;;;;;5109568;28;20478;-73
2022/10/10 10:23:58;;;;;;;10.37;9.30;;;18.60;99.90;;;;;;5108273;28;20473;-72
2022/10/10 10:26:39;;;;;;;10.57;8.67;;;18.60;99.90;;;;;;5119151;28;20481;-74
2022/10/10 10:29:24;;;;;;;10.40;8.57;;;18.70;99.90;;;;;;5117661;28;20549;-73
2022/10/10 10:31:52;;;;;;;10.40;8.90;;;18.70;99.90;;;;;;5100909;28;20805;-73
2022/10/10 10:34:47;;;;;;;13.93;8.17;;;18.80;99.90;;;;;;5117827;27;20480;-73
2022/10/10 10:37:34;;;;;;;11.07;8.60;;;18.80;99.90;;;;;;5119338;27;20681;-73
2022/10/10 10:40:03;;;;;;;10.97;8.27;;;18.90;99.90;;;;;;5106996;27;20484;-73
2022/10/10 10:42:55;;;;;;;8.97;8.03;;;18.90;99.90;;;;;;5119395;27;20709;-73
2022/10/10 10:45:36;;;;;;;14.30;9.30;;;19.00;99.90;;;;;;5097623;27;20450;-73
2022/10/10 10:48:24;;;;;;;9.77;8.57;;;19.00;99.90;;;;;;5124015;27;20553;-74
2022/10/10 10:51:11;;;;;;;12.37;7.97;;;19.00;99.90;;;;;;5122704;27;20441;-73
2022/10/10 10:53:57;;;;;;;12.83;8.30;;;19.10;99.90;;;;;;5123887;27;20514;-73
2022/10/10 10:56:40;;;;;;;12.00;8.47;;;19.10;99.90;;;;;;5114123;27;20455;-73
2022/10/10 11:00:01;;;;;;;10.37;9.07;;;19.10;99.90;;;;;;5116376;27;20493;-73
2022/10/10 11:02:42;;;;;;;10.60;8.97;;;19.20;99.90;;;;;;5038298;28;20812;-74
2022/10/10 11:05:31;;;;;;;13.20;10.67;;;19.20;99.90;;;;;;5111220;27;20724;-74
2022/10/10 11:08:08;;;;;;;13.10;10.77;;;19.10;99.90;;;;;;5096951;27;20466;-75
2022/10/10 11:10:45;;;;;;;12.00;10.80;;;19.10;99.90;;;;;;5110458;27;20429;-74
2022/10/10 11:13:22;;;;;;;9.60;8.60;;;19.20;99.90;;;;;;5103557;27;20446;-75
2022/10/10 11:16:09;;;;;;;11.60;9.37;;;19.10;99.90;;;;;;5120930;27;20982;-74
2022/10/10 11:18:40;;;;;;;11.90;9.53;;;19.20;99.90;;;;;;5106578;27;20441;-75
2022/10/10 11:21:17;;;;;;;13.73;11.00;;;19.20;99.90;;;;;;5122028;27;20689;-74
2022/10/10 11:24:16;;;;;;;13.27;10.00;;;19.20;99.90;;;;;;5125857;27;20466;-75
2022/10/10 11:26:47;;;;;;;13.77;11.20;;;19.20;99.90;;;;;;5073104;27;20419;-74
2022/10/10 11:29:23;;;;;;;16.73;11.20;;;19.20;99.90;;;;;;5105295;27;20457;-75
2022/10/10 11:31:56;;;;;;;16.77;12.80;;;19.20;99.90;;;;;;5106988;27;20963;-74
2022/10/10 11:34:28;;;;;;;15.23;11.50;;;19.20;99.90;;;;;;5128685;27;20427;-75
2022/10/10 11:36:59;;;;;;;14.50;11.90;;;19.20;99.90;;;;;;5127358;27;20426;-74
2022/10/10 11:39:50;;;;;;;16.47;11.13;;;19.30;99.90;;;;;;5105700;27;20441;-75
2022/10/10 11:42:25;;;;;;;15.63;11.43;;;19.30;99.90;;;;;;5124010;27;20465;-74
2022/10/10 11:45:13;;;;;;;13.87;11.87;;;19.30;99.90;;;;;;5104461;27;20447;-75
2022/10/10 11:47:49;;;;;;;13.83;12.33;;;19.30;99.90;;;;;;5125538;27;20569;-74
2022/10/10 11:50:26;;;;;;;15.00;12.47;;;19.40;99.90;;;;;;5123056;27;20472;-74
2022/10/10 11:52:59;;;;;;;15.20;11.27;;;19.40;99.90;;;;;;5124974;27;20448;-74
2022/10/10 11:55:35;;;;;;;16.03;11.73;;;19.40;99.90;;;;;;5125800;27;20789;-75
2022/10/10 11:58:04;;;;;;;22.07;12.07;;;19.50;99.90;;;;;;5104461;27;20471;-74
2022/10/10 12:00:36;;;;;;;15.30;10.50;;;19.50;99.90;;;;;;5103856;27;20439;-75
2022/10/10 12:03:02;;;;;;;11.10;9.90;;;19.50;99.90;;;;;;5123839;27;21030;-74
2022/10/10 12:05:29;;;;;;;15.10;12.90;;;19.50;99.90;;;;;;5120532;27;20440;-74
2022/10/10 12:08:04;;;;;;;16.70;14.20;;;19.60;99.90;;;;;;5099161;27;20470;-74
2022/10/10 12:10:36;;;;;;;17.97;12.30;;;19.60;99.90;;;;;;5095792;27;20638;-75
2022/10/10 12:13:33;;;;;;;14.90;12.33;;;19.60;99.90;;;;;;5119605;27;20773;-74
2022/10/10 12:16:13;;;;;;;11.93;10.53;;;19.60;99.90;;;;;;5098468;27;20476;-74
2022/10/10 12:18:44;;;;;;;18.47;11.27;;;19.70;99.90;;;;;;5107611;27;20970;-74
2022/10/10 12:21:15;;;;;;;11.20;10.00;;;19.70;99.90;;;;;;5120762;27;20446;-74
2022/10/10 12:23:47;;;;;;;14.10;12.00;;;19.80;99.90;;;;;;5122255;27;20569;-75
2022/10/10 12:26:20;;;;;;;22.93;15.93;;;19.80;99.90;;;;;;5100867;27;20471;-74
2022/10/10 12:29:03;;;;;;;15.13;12.00;;;19.80;99.90;;;;;;5101846;27;20470;-74
2022/10/10 12:31:37;;;;;;;13.33;11.83;;;19.80;99.90;;;;;;5126663;27;20439;-75
2022/10/10 12:34:08;;;;;;;13.27;10.60;;;19.90;99.90;;;;;;5103579;27;20437;-74
2022/10/10 12:36:39;;;;;;;13.43;10.83;;;19.90;99.90;;;;;;5101316;27;20461;-74
2022/10/10 12:39:06;;;;;;;15.90;9.93;;;20.00;99.90;;;;;;5123121;27;20442;-75
2022/10/10 12:41:41;;;;;;;16.30;10.80;;;20.00;99.90;;;;;;5120507;27;20450;-74
2022/10/10 12:44:20;;;;;;;16.87;13.60;;;20.00;99.90;;;;;;5103493;27;20439;-74
2022/10/10 12:46:49;;;;;;;15.30;13.23;;;20.00;99.90;;;;;;5126443;27;20428;-74
2022/10/10 12:49:24;;;;;;;17.53;14.40;;;20.00;99.90;;;;;;5131265;27;20515;-74
2022/10/10 12:52:10;;;;;;;16.87;13.70;;;20.10;99.90;;;;;;5132124;27;20474;-75
2022/10/10 12:54:41;;;;;;;17.07;13.80;;;20.10;99.90;;;;;;5133021;27;20519;-74
2022/10/10 12:57:18;;;;;;;15.03;12.77;;;20.20;99.90;;;;;;5131824;27;20962;-75
2022/10/10 12:59:44;;;;;;;19.70;16.13;;;20.20;99.90;;;;;;5132071;27;20820;-75